CYLK

Lutselk'e Airport

Lutselk'e, Northwest Territories, Canada
METAR CYLK 260000Z 25004KT 25SM FEW070 OVC095 09/03 A2961 RMK AC2AC6 14.7/2.2/0 LAST STFD OBS/NEXT 261500 SLP038
Observed Flight Rules
May-26 @ 00:00 UTC (14 hours ago) Visual Flight Rules
Wind Visibility Clouds
250° at 4 knots 25 miles
  • Few at 7,000' AGL
  • Overcast at 9,500' AGL
Temperatures Readings
Current 9°C / 48°F
Dewpoint 3°C / 37°F
Humidity 66%
Altimeter 29.61" Hg
Pressure 1003.8 hPa
Elevation 179
METAR CYLK 260000Z 25004KT 25SM FEW070 OVC095 09/03 A2961 RMK AC2AC6 14.7/2.2/0 LAST STFD OBS/NEXT 261500 SLP038
Observed Flight Rules
May-26 @ 00:00 UTC
(14 hours ago)
VFR
Wind Visibility
250° at 4 knots 25 miles
Clouds
  • Few at 7,000' AGL
  • Overcast at 9,500' AGL
Temperature Dewpoint
9°C / 48°F 3°C / 37°F
Humidity Altimeter Pressure
66% 29.61" Hg 1003.8 hPa